SBBE/BEL METAR and TAF weather

Enter ICAO airport designator
Station Type Date Time Source
SBBE METAR 2019/08/17 11:00 UTC NOAA

SBBE 171100Z 07009KT CAVOK 26/23 Q1014


Station Type Date Time Source
SBBE Decoded METAR 2019/08/17 11:00 UTC NOAA

Station name not available
Aug 17, 2019 - 07:00 AM EDT / 2019.08.17 1100 UTC
Wind: from the ENE (070 degrees) at 10 MPH (9 KT):0
Visibility: greater than 7 mile(s):0
Temperature: 78 F (26 C)
Dew Point: 73 F (23 C)
Relative Humidity: 83%
Pressure (altimeter): 29.94 in. Hg (1014 hPa)
ob: SBBE 171100Z 07009KT CAVOK 26/23 Q1014
cycle: 11

Station Type Date Time Source
SBBE TAF 2019/08/17 12:39 UTC NOAA

TAF TAF SBBE 170940Z 1712/1812 08005KT 9999 FEW017 TX32/1718Z TN24/1809Z
BECMG 1712/1714 10007KT SCT023
BECMG 1716/1718 13007KT SCT030 FEW035TCU
TEMPO 1720/1723 03007KT 7000 TSRA BKN020 FEW030CB
BECMG 1800/1803 06005KT FEW020
RMK PHC

Example: see airport list